Time;durP1;ratioP1;P1;durP2;ratioP2;P2;SDS_P1;SDS_P2;PMS_P1;PMS_P2;Temp;Humidity;BMP_temperature;BMP_pressure;BME280_temperature;BME280_humidity;BME280_pressure;Samples;Min_cycle;Max_cycle;Signal;HPM_P1;HPM_P2
2022/05/25 00:00:39;;;;;;;;;;;;;;;23.05;46.54;94999.66;2064414;28;1569;-65
2022/05/25 00:01:42;;;;;;;;;;;;;;;23.06;46.68;95000.47;2057763;28;1543;-65
2022/05/25 00:02:44;;;;;;;;;;;;;;;23.04;46.43;95005.22;2058138;28;1359;-65
2022/05/25 00:03:47;;;;;;;;;;;;;;;23.01;46.53;95007.31;2060077;28;1505;-65
2022/05/25 00:04:49;;;;;;;;;;;;;;;23.02;46.36;95006.28;2060340;28;1028;-65
2022/05/25 00:05:52;;;;;;;;;;;;;;;23.04;46.38;95000.69;2061757;28;1635;-67
2022/05/25 00:06:54;;;;;;;;;;;;;;;23.01;46.33;95006.50;2067057;28;1000;-65
2022/05/25 00:07:57;;;;;;;;;;;;;;;22.98;46.19;94998.91;2065706;28;1628;-66
2022/05/25 00:08:59;;;;;;;;;;;;;;;22.95;46.52;95005.53;2066437;28;1129;-65
2022/05/25 00:10:01;;;;;;;;;;;;;;;22.96;46.30;95001.00;2066416;28;1631;-65
2022/05/25 00:11:03;;;;;;;;;;;;;;;22.96;46.39;95001.00;2066286;28;1102;-65
2022/05/25 00:12:07;;;;;;;;;;;;;;;22.96;46.26;94996.47;2062376;28;1762;-67
2022/05/25 00:13:09;;;;;;;;;;;;;;;22.96;46.46;94992.97;2061245;28;1591;-65
2022/05/25 00:14:12;;;;;;;;;;;;;;;22.97;46.16;94995.44;2057808;28;1906;-68
2022/05/25 00:15:16;;;;;;;;;;;;;;;22.97;46.47;94992.75;2066830;28;1014;-65
2022/05/25 00:16:19;;;;;;;;;;;;;;;23.03;48.03;94988.34;2065653;28;1584;-64
2022/05/25 00:17:21;;;;;;;;;;;;;;;23.06;46.05;94990.56;2058675;28;1025;-62
2022/05/25 00:18:23;;;;;;;;;;;;;;;22.99;45.99;94987.97;2058021;28;1094;-62
2022/05/25 00:20:46;;;;;;;;;;;;;;;22.93;46.18;94985.38;2058169;28;1057;-61
2022/05/25 00:21:49;;;;;;;;;;;;;;;22.92;46.21;94989.91;2061818;28;1825;-62
2022/05/25 00:22:53;;;;;;;;;;;;;;;22.90;46.30;94983.16;2066109;28;1009;-64
2022/05/25 00:23:55;;;;;;;;;;;;;;;22.86;46.44;94987.34;2061640;28;1004;-62
2022/05/25 00:24:58;;;;;;;;;;;;;;;22.84;46.45;94987.56;2061623;28;998;-62
2022/05/25 00:26:00;;;;;;;;;;;;;;;22.85;46.27;94991.88;2066329;28;1104;-63
2022/05/25 00:27:03;;;;;;;;;;;;;;;22.87;46.54;94992.47;2063572;28;1674;-62
2022/05/25 00:28:06;;;;;;;;;;;;;;;22.87;46.22;94992.47;2066265;28;1133;-62
2022/05/25 00:29:09;;;;;;;;;;;;;;;22.86;46.33;94998.06;2060127;28;1690;-63
2022/05/25 00:30:11;;;;;;;;;;;;;;;22.82;46.44;95000.34;2058193;28;1078;-63
2022/05/25 00:31:16;;;;;;;;;;;;;;;22.83;46.30;95004.69;2058114;28;1240;-64
2022/05/25 00:32:18;;;;;;;;;;;;;;;22.82;46.24;94997.66;2065383;28;1734;-62
2022/05/25 00:33:21;;;;;;;;;;;;;;;22.81;46.50;94997.91;2065823;28;1608;-62
2022/05/25 00:34:23;;;;;;;;;;;;;;;22.82;46.17;94996.84;2064799;28;1902;-62
2022/05/25 00:35:27;;;;;;;;;;;;;;;22.80;46.44;94997.09;2059968;28;1710;-67
2022/05/25 00:36:28;;;;;;;;;;;;;;;22.82;46.21;95000.34;2059543;28;1643;-62
2022/05/25 00:37:31;;;;;;;;;;;;;;;22.79;46.19;95006.16;2058216;28;1097;-67
2022/05/25 00:38:33;;;;;;;;;;;;;;;22.78;46.19;94999.19;2058145;28;1094;-62
2022/05/25 00:39:36;;;;;;;;;;;;;;;22.77;46.26;95001.03;2057768;28;1101;-62
2022/05/25 00:40:39;;;;;;;;;;;;;;;22.79;46.47;95003.47;2058107;28;995;-61
2022/05/25 00:41:42;;;;;;;;;;;;;;;22.79;46.25;95000.81;2059658;28;1554;-62
2022/05/25 00:42:44;;;;;;;;;;;;;;;22.77;46.36;94998.38;2060340;28;1728;-62
2022/05/25 00:43:46;;;;;;;;;;;;;;;22.77;46.25;95002.91;2057999;28;1228;-63
2022/05/25 00:44:49;;;;;;;;;;;;;;;22.80;46.21;94997.09;2063668;28;1684;-63
2022/05/25 00:45:53;;;;;;;;;;;;;;;22.79;46.28;94996.28;2066134;28;1476;-64
2022/05/25 00:46:57;;;;;;;;;;;;;;;22.76;46.51;94993.22;2055402;28;1505;-64
2022/05/25 00:48:00;;;;;;;;;;;;;;;22.76;46.31;94998.56;2065748;28;1094;-64
2022/05/25 00:49:04;;;;;;;;;;;;;;;22.75;46.32;94997.75;2065745;28;1462;-63
2022/05/25 00:50:08;;;;;;;;;;;;;;;22.75;46.28;94999.63;2065807;28;998;-64
2022/05/25 00:51:13;;;;;;;;;;;;;;;22.72;46.21;95006.25;2065681;28;1053;-63
2022/05/25 00:52:16;;;;;;;;;;;;;;;22.73;46.46;95001.72;2065996;28;1752;-64
2022/05/25 00:53:20;;;;;;;;;;;;;;;22.74;46.36;95006.84;2066309;28;1058;-64
2022/05/25 00:54:24;;;;;;;;;;;;;;;22.74;46.47;95004.19;2059975;28;1907;-64
2022/05/25 00:55:28;;;;;;;;;;;;;;;22.75;46.41;95005.00;2057891;28;1027;-63
2022/05/25 00:56:32;;;;;;;;;;;;;;;22.75;46.54;94997.75;2061140;28;1682;-63
2022/05/25 00:57:36;;;;;;;;;;;;;;;22.77;46.52;95008.28;2060991;28;1730;-65
2022/05/25 00:58:39;;;;;;;;;;;;;;;22.75;46.30;95005.00;2060910;28;1666;-63
2022/05/25 00:59:47;;;;;;;;;;;;;;;22.75;46.33;95003.13;2063458;28;1659;-64
2022/05/25 01:00:50;;;;;;;;;;;;;;;22.73;46.36;95009.75;2065476;28;1705;-65
2022/05/25 01:01:52;;;;;;;;;;;;;;;22.74;46.58;95014.09;2061342;28;1779;-65
2022/05/25 01:03:00;;;;;;;;;;;;;;;22.73;46.34;95007.88;2065862;28;1156;-63
2022/05/25 01:04:02;;;;;;;;;;;;;;;22.72;46.61;95005.44;2065335;28;1368;-65
2022/05/25 01:05:06;;;;;;;;;;;;;;;22.70;46.56;95007.50;2059007;28;1720;-64
2022/05/25 01:06:11;;;;;;;;;;;;;;;22.69;46.34;95003.19;2057978;28;1002;-64
2022/05/25 01:07:23;;;;;;;;;;;;;;;22.68;46.45;95006.88;2057694;28;1070;-64
2022/05/25 01:08:31;;;;;;;;;;;;;;;22.68;46.37;95010.41;2057747;28;1137;-64
2022/05/25 01:09:39;;;;;;;;;;;;;;;22.70;46.58;95012.84;2052090;28;1576;-66
2022/05/25 01:10:47;;;;;;;;;;;;;;;22.71;46.41;95009.19;2064978;28;1675;-67
2022/05/25 01:11:56;;;;;;;;;;;;;;;22.72;46.57;95005.44;2061620;28;1649;-64
2022/05/25 01:13:04;;;;;;;;;;;;;;;22.71;46.40;95015.34;2065875;28;1122;-64
2022/05/25 01:14:15;;;;;;;;;;;;;;;22.69;46.42;95008.53;2066078;28;1053;-64
2022/05/25 01:15:21;;;;;;;;;;;;;;;22.70;46.64;95007.50;2057799;28;1977;-64
2022/05/25 01:16:27;;;;;;;;;;;;;;;22.69;46.36;95008.53;2060896;28;1708;-65
2022/05/25 01:17:33;;;;;;;;;;;;;;;22.67;46.33;95014.09;2056871;28;986;-64
2022/05/25 01:18:42;;;;;;;;;;;;;;;22.68;46.44;95012.25;2057941;28;1093;-63
2022/05/25 01:19:54;;;;;;;;;;;;;;;22.70;46.88;95015.53;2057740;28;1113;-63
2022/05/25 01:21:01;;;;;;;;;;;;;;;22.73;46.50;95015.09;2050666;28;1455;-66
2022/05/25 01:22:10;;;;;;;;;;;;;;;22.73;46.53;95015.09;2065607;28;1027;-71
2022/05/25 01:23:31;;;;;;;;;;;;;;;22.73;46.59;95023.13;2065877;28;1164;-71
2022/05/25 01:24:37;;;;;;;;;;;;;;;22.71;46.70;95026.06;2065918;28;1592;-72
2022/05/25 01:25:54;;;;;;;;;;;;;;;22.71;46.65;95025.25;2061548;28;1621;-71
2022/05/25 01:27:10;;;;;;;;;;;;;;;22.70;46.60;95023.56;2064231;28;1514;-73
2022/05/25 01:28:18;;;;;;;;;;;;;;;22.69;46.85;95030.78;2061991;28;1553;-72
2022/05/25 01:29:51;;;;;;;;;;;;;;;22.68;46.44;95021.13;2065049;28;1567;-72
2022/05/25 01:30:56;;;;;;;;;;;;;;;22.67;46.47;95019.47;2039625;29;1483;-73
2022/05/25 01:32:02;;;;;;;;;;;;;;;22.68;46.55;95025.63;2029228;29;1065;-73
2022/05/25 01:33:13;;;;;;;;;;;;;;;22.67;46.48;95024.00;2032141;28;1120;-74
2022/05/25 01:34:19;;;;;;;;;;;;;;;22.64;45.75;95024.47;2057960;28;1061;-74
2022/05/25 01:35:28;;;;;;;;;;;;;;;22.61;46.27;95031.09;2057561;28;1977;-70
2022/05/25 01:36:31;;;;;;;;;;;;;;;22.73;45.75;95023.13;2057562;28;1520;-70
2022/05/25 01:37:38;;;;;;;;;;;;;;;22.85;45.93;95024.03;2064552;28;1482;-71
2022/05/25 01:38:43;;;;;;;;;;;;;;;22.92;45.77;95032.78;2061190;28;1661;-71
2022/05/25 01:39:48;;;;;;;;;;;;;;;22.98;45.61;95039.94;2065492;28;1157;-70
2022/05/25 01:40:56;;;;;;;;;;;;;;;23.05;45.58;95031.81;2065656;28;1634;-66
2022/05/25 01:42:00;;;;;;;;;;;;;;;23.05;45.70;95030.97;2057450;28;1665;-71
2022/05/25 01:43:06;;;;;;;;;;;;;;;23.06;45.52;95028.09;2053488;28;1101;-70
2022/05/25 01:44:11;;;;;;;;;;;;;;;23.07;45.58;95023.53;2052475;28;1144;-70
2022/05/25 01:45:15;;;;;;;;;;;;;;;23.08;45.64;95019.78;2057877;28;1093;-70
2022/05/25 01:46:21;;;;;;;;;;;;;;;23.09;45.82;95026.81;2061838;28;1553;-67
2022/05/25 01:47:26;;;;;;;;;;;;;;;23.11;45.53;95024.72;2066005;28;1021;-67
2022/05/25 01:48:28;;;;;;;;;;;;;;;23.11;45.72;95025.53;2065742;28;1108;-67
2022/05/25 01:49:34;;;;;;;;;;;;;;;23.12;45.70;95027.16;2065906;28;1074;-68
2022/05/25 01:50:40;;;;;;;;;;;;;;;23.14;45.58;95032.31;2064335;28;1477;-70
2022/05/25 01:51:44;;;;;;;;;;;;;;;23.17;45.75;95029.19;2063719;28;1637;-68
2022/05/25 01:52:49;;;;;;;;;;;;;;;23.18;45.71;95033.47;2065656;28;1628;-67
2022/05/25 01:53:54;;;;;;;;;;;;;;;23.19;45.37;95027.06;2064462;28;1687;-66
2022/05/25 01:54:58;;;;;;;;;;;;;;;23.19;45.62;95029.75;2058830;28;1655;-65
2022/05/25 01:56:04;;;;;;;;;;;;;;;23.19;45.53;95032.44;2063817;28;1879;-67
2022/05/25 01:57:09;;;;;;;;;;;;;;;23.19;45.86;95032.44;2065579;28;1548;-67
2022/05/25 01:58:15;;;;;;;;;;;;;;;23.19;45.46;95029.75;2064815;28;1684;-67
2022/05/25 01:59:19;;;;;;;;;;;;;;;23.20;45.71;95028.72;2065428;28;1208;-66
2022/05/25 02:00:28;;;;;;;;;;;;;;;23.20;45.69;95026.84;2063898;28;1719;-68
2022/05/25 02:01:33;;;;;;;;;;;;;;;23.22;45.70;95034.69;2064758;28;1700;-67
2022/05/25 02:05:17;;;;;;;;;;;;;;;23.04;46.10;95034.72;2065566;28;1593;-69
2022/05/25 02:06:41;;;;;;;;;;;;;;;22.99;45.86;95038.91;2058615;28;1109;-69
2022/05/25 02:07:52;;;;;;;;;;;;;;;22.92;45.85;95046.19;2040698;28;1519;-68
2022/05/25 02:09:13;;;;;;;;;;;;;;;22.84;46.04;95045.69;2065955;28;1089;-68
2022/05/25 02:10:23;;;;;;;;;;;;;;;22.80;45.99;95042.63;2064590;28;1783;-68
2022/05/25 02:11:32;;;;;;;;;;;;;;;22.78;46.09;95048.22;2059370;28;1657;-69
2022/05/25 02:12:40;;;;;;;;;;;;;;;22.75;46.15;95045.16;2063116;28;1581;-69
2022/05/25 02:13:50;;;;;;;;;;;;;;;22.75;46.07;95043.31;2065287;28;1105;-69
2022/05/25 02:14:56;;;;;;;;;;;;;;;22.72;45.95;95043.75;2065737;28;1296;-69
2022/05/25 02:16:11;;;;;;;;;;;;;;;22.72;46.04;95046.44;2065025;28;1915;-69
2022/05/25 02:17:20;;;;;;;;;;;;;;;22.70;45.92;95040.47;2061384;28;1156;-69
2022/05/25 02:18:29;;;;;;;;;;;;;;;22.70;45.76;95048.50;2060730;28;1173;-69
2022/05/25 02:19:35;;;;;;;;;;;;;;;22.68;45.77;95044.38;2066009;28;1111;-69
2022/05/25 02:20:40;;;;;;;;;;;;;;;22.69;45.81;95048.72;2065635;28;1052;-69
2022/05/25 02:21:47;;;;;;;;;;;;;;;22.68;45.94;95047.06;2060500;28;1725;-69
2022/05/25 02:22:51;;;;;;;;;;;;;;;22.68;45.67;95044.38;2064252;28;1599;-69
2022/05/25 02:23:56;;;;;;;;;;;;;;;22.65;45.70;95047.50;2065490;28;1136;-69
2022/05/25 02:25:00;;;;;;;;;;;;;;;22.65;45.45;95053.72;2065983;28;1033;-69
2022/05/25 02:26:07;;;;;;;;;;;;;;;22.63;45.54;95057.66;2065757;28;1073;-69
2022/05/25 02:27:12;;;;;;;;;;;;;;;22.63;45.94;95054.97;2065910;28;1656;-69
2022/05/25 02:28:19;;;;;;;;;;;;;;;22.62;45.75;95058.69;2059423;28;1252;-67
2022/05/25 02:29:23;;;;;;;;;;;;;;;22.63;45.66;95057.66;2057803;28;1600;-69
2022/05/25 02:30:26;;;;;;;;;;;;;;;22.62;45.59;95061.34;2063727;28;1396;-68
2022/05/25 02:31:30;;;;;;;;;;;;;;;22.61;45.21;95070.44;2062966;28;1743;-69
2022/05/25 02:32:38;;;;;;;;;;;;;;;22.60;45.67;95063.47;2066463;28;1617;-69
2022/05/25 02:33:42;;;;;;;;;;;;;;;22.61;45.27;95067.75;2067257;28;1220;-69
2022/05/25 02:34:47;;;;;;;;;;;;;;;22.61;45.37;95068.56;2066104;28;1523;-70
2022/05/25 02:35:49;;;;;;;;;;;;;;;22.63;45.37;95063.00;2066307;28;2028;-70
2022/05/25 02:36:54;;;;;;;;;;;;;;;22.64;45.47;95061.97;2066986;28;1105;-70
2022/05/25 02:37:59;;;;;;;;;;;;;;;22.62;45.33;95061.34;2066899;28;1014;-69
2022/05/25 02:39:03;;;;;;;;;;;;;;;22.63;45.60;95063.81;2066636;28;1125;-68
2022/05/25 02:40:08;;;;;;;;;;;;;;;22.62;45.30;95069.38;2062994;28;1172;-69
2022/05/25 02:41:11;;;;;;;;;;;;;;;22.63;45.37;95076.41;2062709;28;1469;-68
2022/05/25 02:42:15;;;;;;;;;;;;;;;22.62;45.47;95074.75;2066296;28;1719;-68
2022/05/25 02:43:17;;;;;;;;;;;;;;;22.62;45.44;95077.41;2066729;28;1655;-71
2022/05/25 02:44:20;;;;;;;;;;;;;;;22.66;45.50;95075.94;2066330;28;1460;-72
2022/05/25 02:45:23;;;;;;;;;;;;;;;22.69;45.41;95080.84;2067248;28;1772;-70
2022/05/25 02:46:25;;;;;;;;;;;;;;;22.68;45.58;95073.84;2065334;28;1622;-72
2022/05/25 02:47:28;;;;;;;;;;;;;;;22.69;46.01;95084.34;2063627;28;1721;-69
2022/05/25 02:48:31;;;;;;;;;;;;;;;22.41;44.88;95074.13;2067216;28;780;-69
2022/05/25 02:49:34;;;;;;;;;;;;;;;22.07;45.31;95080.84;2067177;28;1058;-68
2022/05/25 02:50:36;;;;;;;;;;;;;;;21.86;45.85;95076.69;2066898;28;1189;-68
2022/05/25 02:51:39;;;;;;;;;;;;;;;21.72;46.24;95088.50;2061514;28;1677;-67
2022/05/25 02:52:41;;;;;;;;;;;;;;;21.54;46.46;95087.41;2064436;28;1470;-69
2022/05/25 02:53:44;;;;;;;;;;;;;;;21.49;46.78;95084.56;2065975;28;1696;-68
2022/05/25 02:54:46;;;;;;;;;;;;;;;21.41;47.03;95082.13;2066766;28;1675;-68
2022/05/25 02:55:49;;;;;;;;;;;;;;;21.40;46.84;95089.34;2059346;28;1105;-68
2022/05/25 02:56:51;;;;;;;;;;;;;;;21.39;46.83;95082.34;2058865;28;1903;-68
2022/05/25 02:57:58;;;;;;;;;;;;;;;21.38;46.89;95091.41;2059274;28;1089;-66
2022/05/25 02:59:00;;;;;;;;;;;;;;;21.44;46.59;95092.41;2058603;28;967;-69
2022/05/25 03:00:04;;;;;;;;;;;;;;;21.38;46.78;95093.25;2058964;28;1549;-69
2022/05/25 03:01:06;;;;;;;;;;;;;;;21.32;46.91;95091.44;2059001;28;1086;-69
2022/05/25 03:02:09;;;;;;;;;;;;;;;21.26;46.95;95086.97;2059105;28;1592;-68
2022/05/25 03:03:12;;;;;;;;;;;;;;;21.28;47.03;95092.88;2053513;28;1547;-67
2022/05/25 03:04:16;;;;;;;;;;;;;;;21.25;47.01;95091.47;2061449;28;1624;-69
2022/05/25 03:05:18;;;;;;;;;;;;;;;21.21;47.06;95088.41;2059007;28;1275;-69
2022/05/25 03:06:21;;;;;;;;;;;;;;;21.27;46.83;95083.25;2058601;28;1188;-69
2022/05/25 03:07:23;;;;;;;;;;;;;;;21.22;46.81;95084.69;2066164;28;1479;-69
2022/05/25 03:08:27;;;;;;;;;;;;;;;21.24;46.82;95087.16;2066867;28;974;-71
2022/05/25 03:09:29;;;;;;;;;;;;;;;21.20;46.68;95092.13;2066083;28;1507;-68
2022/05/25 03:10:32;;;;;;;;;;;;;;;21.18;46.71;95091.50;2066759;28;1009;-69
2022/05/25 03:11:34;;;;;;;;;;;;;;;21.16;46.58;95090.06;2067102;28;1109;-68
2022/05/25 03:12:36;;;;;;;;;;;;;;;21.15;46.98;95099.09;2066491;28;1069;-69
2022/05/25 03:13:38;;;;;;;;;;;;;;;21.15;46.87;95097.25;2065586;28;1568;-69
2022/05/25 03:14:42;;;;;;;;;;;;;;;21.32;46.52;95099.47;2057453;28;1608;-67
2022/05/25 03:15:44;;;;;;;;;;;;;;;20.64;47.69;95097.25;2066270;28;1172;-68
2022/05/25 03:16:46;;;;;;;;;;;;;;;20.04;49.49;95110.66;2066736;28;1985;-68
2022/05/25 03:17:48;;;;;;;;;;;;;;;19.45;50.73;95105.03;2066695;28;1022;-69
2022/05/25 03:18:51;;;;;;;;;;;;;;;20.05;49.53;95109.63;2066836;28;1046;-66
2022/05/25 03:19:56;;;;;;;;;;;;;;;20.28;49.21;95112.66;2063738;28;1641;-68
2022/05/25 03:20:59;;;;;;;;;;;;;;;19.85;49.90;95105.09;2058100;28;1541;-68
2022/05/25 03:22:01;;;;;;;;;;;;;;;20.10;49.66;95104.50;2064837;28;1489;-67
2022/05/25 03:23:04;;;;;;;;;;;;;;;20.21;49.24;95106.53;2065689;28;1628;-66
2022/05/25 03:24:06;;;;;;;;;;;;;;;20.39;48.71;95107.78;2066658;28;1090;-66
2022/05/25 03:25:09;;;;;;;;;;;;;;;20.20;49.22;95107.53;2063486;28;1052;-65
2022/05/25 03:26:12;;;;;;;;;;;;;;;20.36;49.20;95118.84;2061565;28;1035;-67
2022/05/25 03:27:14;;;;;;;;;;;;;;;20.43;48.70;95111.66;2066622;28;1327;-67
2022/05/25 03:28:16;;;;;;;;;;;;;;;20.48;48.89;95117.19;2066102;28;1045;-66
2022/05/25 03:29:20;;;;;;;;;;;;;;;20.43;48.78;95109.81;2066730;28;1108;-67
2022/05/25 03:30:22;;;;;;;;;;;;;;;20.46;48.65;95113.91;2066328;28;950;-67
2022/05/25 03:31:25;;;;;;;;;;;;;;;20.39;48.79;95118.44;2066428;28;1173;-67
2022/05/25 03:32:27;;;;;;;;;;;;;;;20.34;48.89;95111.88;2066327;28;1381;-67
2022/05/25 03:33:30;;;;;;;;;;;;;;;20.34;49.00;95116.34;2064788;28;1708;-68
2022/05/25 03:34:32;;;;;;;;;;;;;;;21.09;47.72;95122.16;2065319;28;1600;-66
2022/05/25 03:35:37;;;;;;;;;;;;;;;21.20;47.75;95115.34;2066484;28;1116;-71
2022/05/25 03:36:40;;;;;;;;;;;;;;;21.26;48.68;95124.38;2061687;28;1902;-66
2022/05/25 03:37:42;;;;;;;;;;;;;;;20.90;49.04;95120.38;2060839;28;1855;-71
2022/05/25 03:38:44;;;;;;;;;;;;;;;20.75;49.83;95118.78;2065350;28;1719;-66
2022/05/25 03:39:46;;;;;;;;;;;;;;;20.66;50.29;95124.53;2065169;28;1498;-66
2022/05/25 03:40:50;;;;;;;;;;;;;;;20.56;50.24;95123.13;2065600;28;1293;-66
2022/05/25 03:41:53;;;;;;;;;;;;;;;20.51;50.58;95125.59;2065277;28;1594;-67
2022/05/25 03:42:57;;;;;;;;;;;;;;;20.50;50.50;95129.31;2066707;28;1099;-67
2022/05/25 03:43:59;;;;;;;;;;;;;;;20.80;49.71;95134.19;2065027;28;1619;-66
2022/05/25 03:45:04;;;;;;;;;;;;;;;20.58;49.60;95130.13;2065717;28;1547;-67
2022/05/25 03:46:06;;;;;;;;;;;;;;;20.45;50.07;95133.63;2066580;28;1014;-67
2022/05/25 03:47:09;;;;;;;;;;;;;;;20.36;50.17;95138.31;2066525;28;1020;-67
2022/05/25 03:48:12;;;;;;;;;;;;;;;20.21;50.74;95133.22;2061972;28;1022;-66
2022/05/25 03:49:14;;;;;;;;;;;;;;;20.16;50.73;95130.34;2061057;28;1946;-67
2022/05/25 03:50:18;;;;;;;;;;;;;;;20.07;51.23;95132.41;2065776;28;1307;-67
2022/05/25 03:51:21;;;;;;;;;;;;;;;20.05;51.11;95131.78;2065871;28;1690;-67
2022/05/25 03:52:24;;;;;;;;;;;;;;;20.15;51.51;95136.72;2066239;28;1019;-67
2022/05/25 03:53:27;;;;;;;;;;;;;;;20.23;50.85;95141.00;2065432;28;1628;-67
2022/05/25 03:54:29;;;;;;;;;;;;;;;20.18;50.65;95138.97;2065939;28;1101;-69
2022/05/25 03:55:32;;;;;;;;;;;;;;;20.32;50.63;95134.44;2066394;28;1157;-66
2022/05/25 03:56:33;;;;;;;;;;;;;;;20.23;51.02;95141.00;2063943;28;1037;-73
2022/05/25 03:57:36;;;;;;;;;;;;;;;20.21;51.17;95143.88;2064287;28;1894;-66
2022/05/25 03:58:38;;;;;;;;;;;;;;;20.24;50.91;95143.47;2063127;28;1693;-67
2022/05/25 03:59:41;;;;;;;;;;;;;;;20.22;50.94;95140.19;2061736;28;1420;-71
2022/05/25 04:00:43;;;;;;;;;;;;;;;20.49;50.68;95140.19;2061411;28;1639;-67
2022/05/25 04:01:46;;;;;;;;;;;;;;;20.40;50.88;95152.09;2066157;28;1458;-74
2022/05/25 04:02:48;;;;;;;;;;;;;;;20.22;51.31;95148.19;2066681;28;1010;-67
2022/05/25 04:03:51;;;;;;;;;;;;;;;20.25;51.26;95152.28;2063581;28;1873;-67
2022/05/25 04:05:07;;;;;;;;;;;;;;;20.14;51.26;95152.91;2061251;28;1591;-72
2022/05/25 04:06:10;;;;;;;;;;;;;;;20.01;51.81;95159.06;2059871;28;1489;-67
2022/05/25 04:07:13;;;;;;;;;;;;;;;20.04;51.87;95159.47;2058304;28;990;-67
2022/05/25 04:08:16;;;;;;;;;;;;;;;19.98;51.74;95165.63;2063316;28;1562;-66
2022/05/25 04:09:18;;;;;;;;;;;;;;;20.06;51.53;95157.44;2065864;28;2012;-66
2022/05/25 04:10:21;;;;;;;;;;;;;;;20.05;51.77;95168.31;2065300;28;1650;-66
2022/05/25 04:11:23;;;;;;;;;;;;;;;20.04;51.46;95158.66;2056858;28;1429;-67
2022/05/25 04:12:25;;;;;;;;;;;;;;;19.99;51.85;95158.44;2065597;28;1164;-67
2022/05/25 04:13:27;;;;;;;;;;;;;;;20.04;51.54;95159.47;2062984;28;1540;-67
2022/05/25 04:14:30;;;;;;;;;;;;;;;19.93;51.81;95162.75;2062587;28;1713;-66
2022/05/25 04:15:32;;;;;;;;;;;;;;;19.51;52.90;95153.22;2058651;28;1463;-65
2022/05/25 04:16:35;;;;;;;;;;;;;;;19.42;53.32;95160.56;2058085;28;1014;-69
2022/05/25 04:17:37;;;;;;;;;;;;;;;19.52;53.04;95155.69;2063348;28;1910;-67
2022/05/25 04:18:40;;;;;;;;;;;;;;;19.69;52.95;95155.31;2066198;28;1935;-67
2022/05/25 04:19:42;;;;;;;;;;;;;;;19.80;52.24;95163.53;2065748;28;1044;-67
2022/05/25 04:20:45;;;;;;;;;;;;;;;19.87;52.26;95153.72;2065917;28;1116;-67
2022/05/25 04:21:48;;;;;;;;;;;;;;;20.01;51.86;95161.75;2065906;28;1145;-67
2022/05/25 04:22:51;;;;;;;;;;;;;;;20.01;52.05;95159.91;2057856;28;1176;-66
2022/05/25 04:23:54;;;;;;;;;;;;;;;19.89;52.27;95162.34;2065699;28;1081;-66
2022/05/25 04:24:56;;;;;;;;;;;;;;;19.86;52.21;95160.09;2065981;28;1061;-67
2022/05/25 04:25:59;;;;;;;;;;;;;;;19.91;52.47;95163.97;2066422;28;1074;-67
2022/05/25 04:27:01;;;;;;;;;;;;;;;19.81;52.21;95154.53;2065903;28;1286;-67
2022/05/25 04:28:05;;;;;;;;;;;;;;;19.77;52.57;95157.81;2066232;28;1086;-66
2022/05/25 04:29:07;;;;;;;;;;;;;;;19.76;52.69;95157.00;2066038;28;1085;-66
2022/05/25 04:30:11;;;;;;;;;;;;;;;19.84;52.54;95156.78;2066118;28;1164;-66
2022/05/25 04:31:14;;;;;;;;;;;;;;;19.72;52.71;95157.59;2066163;28;1042;-67
2022/05/25 04:32:16;;;;;;;;;;;;;;;19.71;52.85;95155.94;2065911;28;1144;-66
2022/05/25 04:33:19;;;;;;;;;;;;;;;19.59;52.87;95161.88;2062688;28;1030;-64
2022/05/25 04:34:21;;;;;;;;;;;;;;;19.62;53.45;95160.66;2060582;28;1136;-65
2022/05/25 04:35:24;;;;;;;;;;;;;;;19.51;53.41;95154.03;2066182;28;1101;-66
2022/05/25 04:36:26;;;;;;;;;;;;;;;19.68;53.03;95154.50;2066043;28;1117;-66
2022/05/25 04:38:50;;;;;;;;;;;;;;;19.71;52.76;95154.09;2065334;28;1144;-66
2022/05/25 04:39:52;;;;;;;;;;;;;;;19.61;53.16;95153.69;2065148;28;1080;-66
2022/05/25 04:40:55;;;;;;;;;;;;;;;19.62;52.93;95145.47;2065124;28;1188;-66
2022/05/25 04:42:00;;;;;;;;;;;;;;;19.59;53.20;95159.22;2065070;28;1088;-66
2022/05/25 04:43:05;;;;;;;;;;;;;;;19.76;52.95;95158.84;2065006;28;1058;-66
2022/05/25 04:44:07;;;;;;;;;;;;;;;19.90;52.45;95168.50;2065084;28;1177;-67
2022/05/25 04:45:11;;;;;;;;;;;;;;;19.95;52.66;95165.22;2060685;28;1088;-66
2022/05/25 04:46:14;;;;;;;;;;;;;;;19.89;52.61;95165.00;2061869;28;1067;-67
2022/05/25 04:47:15;;;;;;;;;;;;;;;19.87;52.55;95168.91;2065454;28;1077;-66
2022/05/25 04:48:21;;;;;;;;;;;;;;;19.96;52.36;95172.19;2065443;28;1084;-66
2022/05/25 04:49:25;;;;;;;;;;;;;;;19.81;52.82;95165.22;2065489;28;1355;-66
2022/05/25 04:50:29;;;;;;;;;;;;;;;19.80;53.16;95168.06;2065408;28;1001;-67
2022/05/25 04:51:32;;;;;;;;;;;;;;;19.91;52.62;95158.66;2065443;28;1332;-66
2022/05/25 04:52:34;;;;;;;;;;;;;;;19.99;52.69;95171.78;2065938;28;1045;-66
2022/05/25 04:53:37;;;;;;;;;;;;;;;20.06;52.61;95167.25;2066024;28;1122;-67
2022/05/25 04:54:40;;;;;;;;;;;;;;;20.01;52.28;95169.75;2065994;28;1265;-67
2022/05/25 04:57:23;;;;;;;;;;;;;;;19.91;53.10;95166.66;2060222;28;1076;-67
2022/05/25 04:58:26;;;;;;;;;;;;;;;19.90;53.09;95168.50;2065823;28;2009;-67
2022/05/25 04:59:28;;;;;;;;;;;;;;;20.04;52.33;95166.66;2065899;28;1086;-67
2022/05/25 05:00:30;;;;;;;;;;;;;;;20.04;52.57;95164.81;2065705;28;1094;-66
2022/05/25 05:01:33;;;;;;;;;;;;;;;20.04;52.69;95166.66;2066062;28;1082;-66
2022/05/25 05:02:35;;;;;;;;;;;;;;;20.05;52.41;95170.97;2065838;28;1513;-66
2022/05/25 05:03:38;;;;;;;;;;;;;;;20.17;52.48;95168.50;2065643;28;1152;-67
2022/05/25 05:04:40;;;;;;;;;;;;;;;20.31;52.63;95170.97;2065423;28;1010;-67
2022/05/25 05:05:43;;;;;;;;;;;;;;;20.45;51.87;95168.31;2065727;28;1012;-66
2022/05/25 05:06:47;;;;;;;;;;;;;;;20.49;51.55;95167.72;2065880;28;1528;-66
2022/05/25 05:07:49;;;;;;;;;;;;;;;20.56;51.55;95167.69;2061023;28;1101;-66
2022/05/25 05:08:52;;;;;;;;;;;;;;;20.48;51.75;95171.38;2061112;28;1157;-65
2022/05/25 05:09:55;;;;;;;;;;;;;;;20.45;51.91;95165.66;2065682;28;1347;-66
2022/05/25 05:10:58;;;;;;;;;;;;;;;20.43;52.09;95162.34;2066128;28;1045;-67
2022/05/25 05:12:00;;;;;;;;;;;;;;;20.43;52.11;95157.88;2065409;28;1001;-66
2022/05/25 05:13:04;;;;;;;;;;;;;;;20.45;51.91;95165.66;2065888;28;1113;-66
2022/05/25 05:14:06;;;;;;;;;;;;;;;20.44;52.08;95164.03;2065728;28;1078;-66
2022/05/25 05:15:09;;;;;;;;;;;;;;;20.44;52.27;95164.84;2066085;28;1064;-67
2022/05/25 05:16:13;;;;;;;;;;;;;;;20.47;52.19;95174.28;2065508;28;1689;-65
2022/05/25 05:17:17;;;;;;;;;;;;;;;20.45;52.55;95173.66;2065903;28;1018;-66
2022/05/25 05:18:20;;;;;;;;;;;;;;;20.39;52.48;95169.16;2066115;28;1898;-66
2022/05/25 05:19:23;;;;;;;;;;;;;;;20.42;52.74;95172.22;2058098;28;1078;-65
2022/05/25 05:20:25;;;;;;;;;;;;;;;20.52;52.52;95166.47;2065038;28;1007;-68
2022/05/25 05:21:28;;;;;;;;;;;;;;;20.49;52.60;95181.06;2066142;28;1090;-66
2022/05/25 05:22:29;;;;;;;;;;;;;;;20.55;52.76;95171.41;2065497;28;1165;-67
2022/05/25 05:23:32;;;;;;;;;;;;;;;20.43;52.94;95175.72;2066060;28;1028;-66
2022/05/25 05:24:34;;;;;;;;;;;;;;;20.47;52.62;95176.94;2065730;28;1166;-67
2022/05/25 05:25:38;;;;;;;;;;;;;;;20.58;52.58;95176.31;2066108;28;1082;-66
2022/05/25 05:26:40;;;;;;;;;;;;;;;20.65;52.18;95176.31;2065554;28;1248;-66
2022/05/25 05:27:45;;;;;;;;;;;;;;;20.71;52.25;95186.97;2065787;28;1433;-67
2022/05/25 05:28:49;;;;;;;;;;;;;;;20.79;52.09;95177.91;2065887;28;1366;-66
2022/05/25 05:29:52;;;;;;;;;;;;;;;20.75;51.68;95185.53;2066301;28;1048;-66
2022/05/25 05:30:55;;;;;;;;;;;;;;;20.77;52.31;95186.16;2057122;28;1007;-66
2022/05/25 05:31:59;;;;;;;;;;;;;;;20.87;52.30;95183.03;2065821;28;1083;-66
2022/05/25 05:33:01;;;;;;;;;;;;;;;21.03;52.23;95184.44;2066101;28;1034;-67
2022/05/25 05:34:03;;;;;;;;;;;;;;;21.11;51.76;95186.84;2065840;28;1067;-67
2022/05/25 05:35:07;;;;;;;;;;;;;;;21.05;51.69;95179.69;2066183;28;1081;-66
2022/05/25 05:36:11;;;;;;;;;;;;;;;20.99;51.60;95184.03;2065787;28;1172;-67
2022/05/25 05:37:15;;;;;;;;;;;;;;;21.09;51.35;95178.25;2066189;28;1501;-67
2022/05/25 05:38:18;;;;;;;;;;;;;;;21.19;51.76;95178.66;2065980;28;2308;-66
2022/05/25 05:39:22;;;;;;;;;;;;;;;21.30;51.96;95181.69;2066319;28;1903;-67
2022/05/25 05:40:25;;;;;;;;;;;;;;;21.31;51.04;95186.00;2066023;28;1099;-66
2022/05/25 05:41:31;;;;;;;;;;;;;;;21.36;51.16;95194.22;2062022;28;1090;-64
2022/05/25 05:42:36;;;;;;;;;;;;;;;21.45;50.97;95195.59;2061146;28;1261;-65
2022/05/25 05:43:39;;;;;;;;;;;;;;;21.40;50.63;95193.59;2065932;28;1011;-66
2022/05/25 05:44:44;;;;;;;;;;;;;;;21.40;50.77;95196.25;2065843;28;1010;-66
2022/05/25 05:45:47;;;;;;;;;;;;;;;21.45;50.69;95200.94;2065865;28;1176;-66